createdAt,value
2022-12-07T00:01:08.815Z,4.13
2022-12-07T00:03:37.594Z,4.30
2022-12-07T00:06:07.137Z,4.40
2022-12-07T00:08:36.077Z,4.10
2022-12-07T00:11:06.586Z,5.00
2022-12-07T00:13:35.175Z,4.83
2022-12-07T00:16:04.192Z,5.33
2022-12-07T00:18:32.370Z,5.43
2022-12-07T00:21:03.984Z,5.13
2022-12-07T00:23:31.829Z,9.90
2022-12-07T00:26:07.073Z,5.40
2022-12-07T00:28:35.696Z,6.23
2022-12-07T00:31:06.222Z,5.70
2022-12-07T00:33:34.167Z,7.70
2022-12-07T00:36:02.663Z,8.83
2022-12-07T00:38:31.921Z,7.37
2022-12-07T00:41:01.149Z,6.90
2022-12-07T00:43:30.654Z,7.13
2022-12-07T00:45:58.814Z,7.77
2022-12-07T00:48:27.069Z,10.63
2022-12-07T00:50:54.949Z,7.23
2022-12-07T00:53:22.725Z,7.43
2022-12-07T00:55:50.610Z,7.70
2022-12-07T00:58:18.330Z,8.37
2022-12-07T01:00:47.663Z,8.93
2022-12-07T01:03:17.317Z,8.93
2022-12-07T01:05:52.439Z,8.63
2022-12-07T01:08:20.529Z,9.57
2022-12-07T01:10:48.340Z,8.57
2022-12-07T01:13:16.804Z,7.77
2022-12-07T01:15:45.936Z,9.60
2022-12-07T01:18:15.011Z,7.73
2022-12-07T01:20:42.923Z,8.63
2022-12-07T01:23:10.826Z,7.93
2022-12-07T01:25:38.536Z,8.30
2022-12-07T01:28:06.351Z,8.13
2022-12-07T01:30:34.123Z,8.07
2022-12-07T01:33:01.877Z,8.03
2022-12-07T01:35:31.014Z,8.73
2022-12-07T01:37:58.715Z,7.77
2022-12-07T01:40:26.454Z,10.00
2022-12-07T01:42:54.182Z,10.47
2022-12-07T01:45:40.792Z,9.10
2022-12-07T01:48:12.213Z,10.53
2022-12-07T01:50:43.965Z,6.93
2022-12-07T01:53:12.757Z,6.67
2022-12-07T01:55:45.679Z,9.57
2022-12-07T01:58:14.303Z,9.83
2022-12-07T02:00:43.158Z,9.60
2022-12-07T02:03:16.718Z,7.73
2022-12-07T02:05:46.986Z,9.40
2022-12-07T02:08:15.551Z,8.43
2022-12-07T02:10:43.631Z,8.30
2022-12-07T02:13:16.288Z,10.70
2022-12-07T02:16:07.173Z,9.40
2022-12-07T02:18:46.798Z,9.20
2022-12-07T02:21:22.456Z,9.90
2022-12-07T02:24:13.143Z,9.53
2022-12-07T02:27:09.643Z,9.97
2022-12-07T02:29:44.638Z,10.87
2022-12-07T02:32:18.450Z,9.27
2022-12-07T02:34:51.557Z,10.20
2022-12-07T02:37:38.473Z,12.63
2022-12-07T02:40:11.911Z,10.87
2022-12-07T02:42:44.763Z,11.70
2022-12-07T02:45:19.787Z,9.90
2022-12-07T02:47:49.214Z,13.17
2022-12-07T02:50:19.712Z,9.93
2022-12-07T02:52:47.492Z,9.73
2022-12-07T02:55:20.224Z,11.83
2022-12-07T02:58:02.236Z,9.53
2022-12-07T03:00:34.305Z,13.30
2022-12-07T03:03:06.231Z,12.07
2022-12-07T03:05:51.168Z,14.63
2022-12-07T03:08:26.649Z,18.00
2022-12-07T03:11:00.526Z,11.00
2022-12-07T03:13:41.405Z,16.73
2022-12-07T03:16:16.626Z,12.63
2022-12-07T03:18:51.142Z,16.93
2022-12-07T03:21:22.309Z,12.57
2022-12-07T03:23:55.133Z,16.90
2022-12-07T03:26:27.038Z,16.30
2022-12-07T03:28:57.983Z,15.10
2022-12-07T03:31:30.677Z,18.40
2022-12-07T03:34:03.399Z,16.73
2022-12-07T03:36:36.636Z,20.17
2022-12-07T03:39:13.457Z,17.93
2022-12-07T03:41:45.166Z,20.43
2022-12-07T03:44:14.575Z,17.53
2022-12-07T03:46:48.015Z,18.40
2022-12-07T03:49:24.168Z,16.90
2022-12-07T03:51:57.331Z,21.20
2022-12-07T03:54:31.050Z,16.07
2022-12-07T03:57:00.588Z,22.23
2022-12-07T03:59:29.537Z,22.67
2022-12-07T04:02:04.990Z,18.30
2022-12-07T04:04:32.802Z,27.20
2022-12-07T04:07:00.523Z,27.67
2022-12-07T04:09:28.651Z,23.73
2022-12-07T04:11:56.361Z,24.70
2022-12-07T04:14:24.294Z,25.57
2022-12-07T04:16:54.065Z,22.43
2022-12-07T04:19:25.323Z,18.73
2022-12-07T04:21:53.013Z,25.27
2022-12-07T04:24:21.446Z,35.50
2022-12-07T04:26:49.336Z,40.13
2022-12-07T04:29:17.929Z,36.00
2022-12-07T04:31:46.172Z,27.30
2022-12-07T04:34:14.629Z,25.67
2022-12-07T04:36:45.235Z,26.73
2022-12-07T04:39:21.316Z,23.17
2022-12-07T04:41:49.338Z,29.50
2022-12-07T04:44:18.035Z,25.27
2022-12-07T04:46:45.930Z,25.43
2022-12-07T04:49:14.763Z,25.27
2022-12-07T04:51:44.569Z,27.13
2022-12-07T04:54:12.575Z,28.47
2022-12-07T04:56:40.565Z,28.30
2022-12-07T04:59:08.597Z,25.03
2022-12-07T05:01:36.389Z,30.37
2022-12-07T05:04:04.703Z,22.20
2022-12-07T05:06:32.443Z,26.10
2022-12-07T05:09:01.746Z,27.90
2022-12-07T05:11:41.790Z,27.90
2022-12-07T05:14:14.128Z,121.00
2022-12-07T05:16:42.217Z,76.03
2022-12-07T05:19:11.076Z,38.37
2022-12-07T05:21:39.072Z,30.10
2022-12-07T05:24:09.980Z,28.53
2022-12-07T05:26:37.742Z,26.40
2022-12-07T05:29:05.883Z,32.13
2022-12-07T05:31:34.013Z,32.20
2022-12-07T05:34:01.797Z,30.00
2022-12-07T05:36:32.084Z,39.20
2022-12-07T05:39:00.261Z,30.97
2022-12-07T05:41:46.968Z,28.70
2022-12-07T05:44:14.730Z,38.80
2022-12-07T05:46:42.457Z,29.97
2022-12-07T05:49:10.168Z,31.20
2022-12-07T05:51:38.106Z,27.37
2022-12-07T05:54:05.920Z,35.80
2022-12-07T05:56:35.019Z,34.23
2022-12-07T05:59:20.638Z,31.47
2022-12-07T06:01:48.428Z,38.13
2022-12-07T06:04:16.202Z,36.63
2022-12-07T06:06:44.001Z,33.60
2022-12-07T06:09:12.620Z,28.07
2022-12-07T06:11:59.413Z,31.00
2022-12-07T06:14:27.555Z,32.17
2022-12-07T06:16:55.332Z,33.70
2022-12-07T06:19:23.179Z,32.30
2022-12-07T06:21:51.002Z,34.90
2022-12-07T06:24:19.971Z,28.87
2022-12-07T06:26:49.127Z,32.67
2022-12-07T06:29:17.910Z,29.80
2022-12-07T06:31:45.822Z,38.77
2022-12-07T06:34:15.745Z,39.57
2022-12-07T06:36:43.726Z,32.90
2022-12-07T06:39:11.750Z,32.57
2022-12-07T06:41:41.861Z,31.37
2022-12-07T06:44:11.169Z,34.00
2022-12-07T06:46:38.943Z,33.67
2022-12-07T06:49:07.246Z,53.67
2022-12-07T06:51:36.257Z,37.83
2022-12-07T06:54:04.456Z,42.63
2022-12-07T06:56:32.208Z,40.33
2022-12-07T06:58:59.924Z,39.20
2022-12-07T07:01:29.115Z,38.27
2022-12-07T07:03:56.972Z,34.10
2022-12-07T07:06:24.711Z,32.03
2022-12-07T07:08:52.846Z,34.63
2022-12-07T07:11:20.989Z,23.07
2022-12-07T07:13:48.729Z,24.40
2022-12-07T07:16:16.638Z,24.47
2022-12-07T07:18:45.735Z,24.97
2022-12-07T07:21:13.444Z,25.23
2022-12-07T07:23:41.206Z,23.67
2022-12-07T07:26:08.964Z,24.83
2022-12-07T07:28:36.762Z,25.20
2022-12-07T07:31:04.544Z,17.10
2022-12-07T07:33:32.296Z,22.30
2022-12-07T07:36:01.532Z,21.17
2022-12-07T07:38:29.263Z,20.87
2022-12-07T07:40:57.341Z,16.47
2022-12-07T07:43:25.077Z,14.63
2022-12-07T07:45:52.864Z,17.37
2022-12-07T07:48:20.595Z,19.13
2022-12-07T07:50:48.301Z,14.30
2022-12-07T07:53:17.383Z,15.57
2022-12-07T07:55:52.742Z,15.30
2022-12-07T07:58:20.440Z,16.30
2022-12-07T08:00:48.189Z,17.43
2022-12-07T08:03:15.894Z,13.70
2022-12-07T08:05:43.697Z,14.33
2022-12-07T08:08:11.516Z,15.97
2022-12-07T08:10:41.017Z,16.17
2022-12-07T08:13:14.895Z,15.90
2022-12-07T08:15:44.131Z,15.40
2022-12-07T08:18:12.071Z,12.43
2022-12-07T08:20:41.437Z,6.97
2022-12-07T08:23:11.270Z,8.13
2022-12-07T08:25:40.968Z,8.20
2022-12-07T08:28:08.734Z,6.23
2022-12-07T08:30:36.496Z,4.00
2022-12-07T08:33:04.434Z,3.37
2022-12-07T08:35:32.180Z,3.30
2022-12-07T08:37:59.928Z,3.37
2022-12-07T08:40:27.622Z,6.33
2022-12-07T08:42:56.706Z,3.73
2022-12-07T08:45:27.277Z,3.10
2022-12-07T08:48:00.236Z,3.93
2022-12-07T08:50:28.650Z,3.57
2022-12-07T08:52:59.108Z,4.10
2022-12-07T08:55:28.209Z,2.50
2022-12-07T08:57:59.189Z,3.20
2022-12-07T09:00:27.498Z,3.40
2022-12-07T09:02:55.799Z,4.77
2022-12-07T09:05:24.152Z,3.43
2022-12-07T09:07:56.308Z,3.43
2022-12-07T09:10:24.509Z,4.30
2022-12-07T09:12:52.394Z,5.47
2022-12-07T09:15:21.755Z,5.03
2022-12-07T09:17:49.623Z,2.87
2022-12-07T09:20:17.457Z,5.50
2022-12-07T09:22:45.161Z,6.37
2022-12-07T09:25:13.215Z,6.00
2022-12-07T09:27:41.265Z,7.40
2022-12-07T09:30:09.847Z,10.47
2022-12-07T09:32:38.996Z,5.23
2022-12-07T09:35:07.763Z,6.23
2022-12-07T09:37:37.109Z,6.37
2022-12-07T09:40:07.265Z,4.63
2022-12-07T09:42:38.259Z,5.77
2022-12-07T09:45:09.314Z,8.37
2022-12-07T09:47:38.370Z,4.80
2022-12-07T09:50:14.107Z,6.37
2022-12-07T09:52:42.378Z,3.13
2022-12-07T09:55:14.318Z,6.73
2022-12-07T09:57:42.583Z,3.67
2022-12-07T10:00:15.614Z,6.93
2022-12-07T10:02:46.982Z,6.60
2022-12-07T10:05:23.498Z,3.80
2022-12-07T10:07:52.142Z,3.53
2022-12-07T10:10:25.350Z,5.10
2022-12-07T10:12:59.409Z,5.47
2022-12-07T10:15:45.088Z,20.73
2022-12-07T10:18:30.865Z,3.17
2022-12-07T10:21:17.237Z,1.70
2022-12-07T10:24:02.424Z,2.67
2022-12-07T10:26:35.795Z,4.43
2022-12-07T10:29:16.571Z,2.67
2022-12-07T10:31:45.553Z,3.17
2022-12-07T10:34:26.079Z,2.10
2022-12-07T10:36:55.281Z,2.70
2022-12-07T10:39:25.154Z,3.77
2022-12-07T10:41:58.089Z,1.60
2022-12-07T10:44:27.615Z,3.83
2022-12-07T10:47:22.400Z,1.30
2022-12-07T10:50:19.685Z,1.30
2022-12-07T10:53:11.144Z,4.33
2022-12-07T10:55:55.508Z,0.43
2022-12-07T10:58:38.695Z,1.63
2022-12-07T11:01:17.449Z,0.50
2022-12-07T11:04:09.727Z,0.43
2022-12-07T11:06:46.051Z,0.50
2022-12-07T11:10:07.891Z,0.60
2022-12-07T11:12:42.707Z,0.60
2022-12-07T11:15:19.341Z,0.80
2022-12-07T11:17:54.914Z,0.50
2022-12-07T11:20:37.295Z,2.50
2022-12-07T11:23:18.952Z,1.70
2022-12-07T11:25:56.037Z,0.70
2022-12-07T11:28:40.787Z,1.17
2022-12-07T11:31:25.801Z,1.57
2022-12-07T11:34:02.971Z,2.37
2022-12-07T11:36:39.911Z,1.43
2022-12-07T11:39:27.380Z,0.60
2022-12-07T11:42:02.312Z,1.03
2022-12-07T11:44:39.464Z,1.80
2022-12-07T11:47:12.488Z,0.83
2022-12-07T11:49:46.107Z,0.67
2022-12-07T11:52:24.368Z,1.63
2022-12-07T11:54:55.732Z,0.80
2022-12-07T11:57:29.858Z,2.27
2022-12-07T12:00:03.229Z,0.67
2022-12-07T12:02:39.459Z,0.57
2022-12-07T12:05:17.277Z,0.43
2022-12-07T12:10:48.178Z,1.73
2022-12-07T12:16:56.394Z,2.00
2022-12-07T12:19:32.633Z,2.33
2022-12-07T12:22:12.702Z,1.00
2022-12-07T12:24:42.528Z,3.23
2022-12-07T12:27:20.239Z,4.83
2022-12-07T12:29:55.431Z,0.50
2022-12-07T12:32:26.217Z,0.30
2022-12-07T12:35:24.098Z,4.13
2022-12-07T12:37:54.888Z,0.53
2022-12-07T12:40:50.875Z,3.50
2022-12-07T12:43:53.577Z,0.80
2022-12-07T12:46:50.929Z,4.20
2022-12-07T12:49:44.079Z,2.60
2022-12-07T12:52:50.647Z,2.13
2022-12-07T12:55:22.899Z,3.77
2022-12-07T12:58:32.820Z,5.60
2022-12-07T13:01:46.130Z,1.67
2022-12-07T13:04:27.677Z,0.97
2022-12-07T13:06:55.649Z,2.00
2022-12-07T13:09:26.809Z,0.50
2022-12-07T13:12:02.066Z,1.47
2022-12-07T13:14:45.350Z,2.30
2022-12-07T13:17:13.530Z,2.30
2022-12-07T13:20:02.415Z,0.77
2022-12-07T13:22:45.179Z,1.77
2022-12-07T13:25:21.400Z,2.43
2022-12-07T13:27:57.476Z,0.30
2022-12-07T13:30:26.003Z,1.77
2022-12-07T13:32:56.157Z,0.30
2022-12-07T13:35:34.248Z,0.47
2022-12-07T13:38:04.604Z,2.83
2022-12-07T13:40:32.323Z,0.40
2022-12-07T13:43:01.772Z,0.83
2022-12-07T13:45:49.176Z,0.77
2022-12-07T13:48:22.304Z,0.27
2022-12-07T13:50:56.741Z,0.53
2022-12-07T13:53:24.794Z,2.47
2022-12-07T13:55:54.787Z,0.87
2022-12-07T13:58:23.842Z,0.40
2022-12-07T14:00:52.065Z,0.60
2022-12-07T14:03:29.303Z,0.40
2022-12-07T14:06:16.465Z,0.30
2022-12-07T14:08:45.065Z,1.43
2022-12-07T14:11:20.540Z,0.60
2022-12-07T14:14:00.273Z,1.80
2022-12-07T14:16:30.763Z,1.40
2022-12-07T14:19:00.178Z,0.37
2022-12-07T14:21:31.410Z,1.60
2022-12-07T14:24:20.668Z,0.40
2022-12-07T14:26:49.609Z,2.50
2022-12-07T14:29:39.698Z,0.47
2022-12-07T14:32:21.661Z,0.80
2022-12-07T14:34:56.793Z,0.30
2022-12-07T14:37:26.139Z,0.50
2022-12-07T14:39:53.883Z,0.60
2022-12-07T14:42:22.305Z,1.33
2022-12-07T14:44:50.077Z,0.60
2022-12-07T14:50:06.818Z,0.60
2022-12-07T14:55:26.354Z,0.60
2022-12-07T14:57:54.531Z,3.20
2022-12-07T15:00:24.742Z,0.40
2022-12-07T15:02:53.046Z,0.40
2022-12-07T15:05:21.383Z,0.40
2022-12-07T15:07:51.687Z,0.97
2022-12-07T15:10:24.197Z,3.30
2022-12-07T15:12:52.862Z,0.67
2022-12-07T15:15:20.732Z,0.40
2022-12-07T15:17:48.521Z,0.30
2022-12-07T15:20:18.803Z,0.50
2022-12-07T15:22:46.538Z,0.50
2022-12-07T15:25:16.521Z,0.37
2022-12-07T15:27:44.252Z,0.87
2022-12-07T15:30:12.489Z,2.73
2022-12-07T15:32:40.295Z,0.37
2022-12-07T15:35:08.799Z,0.70
2022-12-07T15:37:36.762Z,3.93
2022-12-07T15:40:07.959Z,2.87
2022-12-07T15:42:38.158Z,0.60
2022-12-07T15:45:06.820Z,0.47
2022-12-07T15:48:02.277Z,0.20
2022-12-07T15:50:25.791Z,0.47
2022-12-07T15:52:53.526Z,0.30
2022-12-07T15:55:21.285Z,2.10
2022-12-07T15:57:50.447Z,0.50
2022-12-07T16:00:19.429Z,0.80
2022-12-07T16:02:47.266Z,1.33
2022-12-07T16:05:15.293Z,0.60
2022-12-07T16:07:43.102Z,0.50
2022-12-07T16:10:11.730Z,0.37
2022-12-07T16:12:39.433Z,2.43
2022-12-07T16:15:09.682Z,0.30
2022-12-07T16:17:37.425Z,0.50
2022-12-07T16:20:06.467Z,0.60
2022-12-07T16:22:34.402Z,1.13
2022-12-07T16:25:02.500Z,0.70
2022-12-07T16:27:31.161Z,0.50
2022-12-07T16:29:58.932Z,1.27
2022-12-07T16:32:28.062Z,3.33
2022-12-07T16:34:55.806Z,1.27
2022-12-07T16:37:23.518Z,1.33
2022-12-07T16:39:51.266Z,0.70
2022-12-07T16:42:18.987Z,0.60
2022-12-07T16:44:46.677Z,0.90
2022-12-07T16:47:16.018Z,2.60
2022-12-07T16:49:45.964Z,0.83
2022-12-07T16:52:21.520Z,0.80
2022-12-07T16:54:50.797Z,0.87
2022-12-07T16:57:23.434Z,0.77
2022-12-07T16:59:51.864Z,1.10
2022-12-07T17:02:19.628Z,0.50
2022-12-07T17:04:48.691Z,0.80
2022-12-07T17:07:16.496Z,0.77
2022-12-07T17:09:44.216Z,0.90
2022-12-07T17:12:11.923Z,1.17
2022-12-07T17:14:57.281Z,1.00
2022-12-07T17:17:24.997Z,0.83
2022-12-07T17:19:54.079Z,1.17
2022-12-07T17:22:21.798Z,2.03
2022-12-07T17:24:49.565Z,2.40
2022-12-07T17:27:17.771Z,2.00
2022-12-07T17:29:45.501Z,1.33
2022-12-07T17:32:13.317Z,1.53
2022-12-07T17:34:41.142Z,0.87
2022-12-07T17:37:10.193Z,0.60
2022-12-07T17:39:38.051Z,0.50
2022-12-07T17:42:23.279Z,0.70
2022-12-07T17:44:51.082Z,0.83
2022-12-07T17:47:19.224Z,1.07
2022-12-07T17:49:48.130Z,0.77
2022-12-07T17:52:37.913Z,0.93
2022-12-07T17:55:06.769Z,0.60
2022-12-07T17:57:34.611Z,0.30
2022-12-07T18:00:02.327Z,12.33
2022-12-07T18:02:30.025Z,12.37
2022-12-07T18:04:57.712Z,3.13
2022-12-07T18:07:26.779Z,0.50
2022-12-07T18:09:54.527Z,0.33
2022-12-07T18:12:22.265Z,0.83
2022-12-07T18:14:50.929Z,3.10
2022-12-07T18:17:18.945Z,0.63
2022-12-07T18:19:46.745Z,0.80
2022-12-07T18:22:14.490Z,0.53
2022-12-07T18:24:43.605Z,0.50
2022-12-07T18:27:11.901Z,0.60
2022-12-07T18:29:39.615Z,0.57
2022-12-07T18:32:07.673Z,0.70
2022-12-07T18:34:35.355Z,1.10
2022-12-07T18:37:03.065Z,1.20
2022-12-07T18:39:33.956Z,0.33
2022-12-07T18:42:03.471Z,2.00
2022-12-07T18:44:31.197Z,3.10
2022-12-07T18:46:59.037Z,3.53
2022-12-07T18:49:26.777Z,0.43
2022-12-07T18:51:54.562Z,0.50
2022-12-07T18:54:22.301Z,0.47
2022-12-07T18:56:50.240Z,1.83
2022-12-07T18:59:36.509Z,0.73
2022-12-07T19:02:04.435Z,1.80
2022-12-07T19:04:32.586Z,15.60
2022-12-07T19:07:00.327Z,1.10
2022-12-07T19:09:28.114Z,2.83
2022-12-07T19:11:57.122Z,1.83
2022-12-07T19:14:28.479Z,0.40
2022-12-07T19:16:58.356Z,0.60
2022-12-07T19:19:31.496Z,0.67
2022-12-07T19:21:59.921Z,1.23
2022-12-07T19:24:27.971Z,0.60
2022-12-07T19:26:56.138Z,1.00
2022-12-07T19:29:24.326Z,0.40
2022-12-07T19:31:53.998Z,0.60
2022-12-07T19:34:22.189Z,0.80
2022-12-07T19:36:50.518Z,0.30
2022-12-07T19:39:18.750Z,0.30
2022-12-07T19:41:47.580Z,1.03
2022-12-07T19:44:17.568Z,0.63
2022-12-07T19:46:48.947Z,0.77
2022-12-07T19:49:19.398Z,0.83
2022-12-07T19:51:49.836Z,3.40
2022-12-07T19:54:20.514Z,2.40
2022-12-07T19:56:49.813Z,0.60
2022-12-07T19:59:19.656Z,0.50
2022-12-07T20:01:47.920Z,0.73
2022-12-07T20:04:20.817Z,2.20
2022-12-07T20:06:49.726Z,9.57
2022-12-07T20:09:17.739Z,8.10
2022-12-07T20:12:03.448Z,2.57
2022-12-07T20:14:32.181Z,1.30
2022-12-07T20:17:01.130Z,1.10
2022-12-07T20:19:30.794Z,1.50
2022-12-07T20:21:58.826Z,1.00
2022-12-07T20:24:27.379Z,1.00
2022-12-07T20:26:56.120Z,1.73
2022-12-07T20:29:26.340Z,1.13
2022-12-07T20:31:55.749Z,0.80
2022-12-07T20:34:25.418Z,0.80
2022-12-07T20:36:55.361Z,2.00
2022-12-07T20:39:24.104Z,1.10
2022-12-07T20:42:10.017Z,1.07
2022-12-07T20:44:37.761Z,2.30
2022-12-07T20:47:06.312Z,0.77
2022-12-07T20:49:35.433Z,4.93
2022-12-07T20:52:04.970Z,1.43
2022-12-07T20:54:32.897Z,0.60
2022-12-07T20:57:00.591Z,0.97
2022-12-07T20:59:28.346Z,0.53
2022-12-07T21:01:56.120Z,1.23
2022-12-07T21:04:23.883Z,0.70
2022-12-07T21:06:53.722Z,0.70
2022-12-07T21:09:26.838Z,0.70
2022-12-07T21:11:55.056Z,0.73
2022-12-07T21:14:23.347Z,0.73
2022-12-07T21:16:51.083Z,0.90
2022-12-07T21:19:19.112Z,1.23
2022-12-07T21:21:46.889Z,0.80
2022-12-07T21:24:14.637Z,1.03
2022-12-07T21:26:43.771Z,0.90
2022-12-07T21:29:11.493Z,2.57
2022-12-07T21:31:39.246Z,1.30
2022-12-07T21:34:07.029Z,1.43
2022-12-07T21:36:35.106Z,1.60
2022-12-07T21:39:02.923Z,2.33
2022-12-07T21:41:32.665Z,2.33
2022-12-07T21:44:04.848Z,2.60
2022-12-07T21:46:34.624Z,3.30
2022-12-07T21:49:06.097Z,4.80
2022-12-07T21:51:34.103Z,3.23
2022-12-07T21:54:03.452Z,2.90
2022-12-07T21:56:33.483Z,2.37
2022-12-07T21:59:05.128Z,2.20
2022-12-07T22:01:38.097Z,2.10
2022-12-07T22:04:06.460Z,1.37
2022-12-07T22:06:35.886Z,1.83
2022-12-07T22:09:05.128Z,1.80
2022-12-07T22:11:32.887Z,1.80
2022-12-07T22:14:27.711Z,3.47
2022-12-07T22:16:55.490Z,1.33
2022-12-07T22:19:23.268Z,1.30
2022-12-07T22:21:50.986Z,1.27
2022-12-07T22:24:18.694Z,3.00
2022-12-07T22:26:46.427Z,1.93
2022-12-07T22:29:15.698Z,1.30
2022-12-07T22:31:43.559Z,1.43
2022-12-07T22:34:16.516Z,1.60
2022-12-07T22:36:44.336Z,1.67
2022-12-07T22:39:12.054Z,1.40
2022-12-07T22:41:39.838Z,2.00
2022-12-07T22:44:08.576Z,1.40
2022-12-07T22:46:38.332Z,1.67
2022-12-07T22:49:06.938Z,1.50
2022-12-07T22:51:36.845Z,1.53
2022-12-07T22:54:06.875Z,3.90
2022-12-07T22:56:36.626Z,3.63
2022-12-07T22:59:05.109Z,1.23
2022-12-07T23:01:32.822Z,1.80
2022-12-07T23:04:02.284Z,1.77
2022-12-07T23:06:32.892Z,1.67
2022-12-07T23:09:02.816Z,3.50
2022-12-07T23:11:51.082Z,1.60
2022-12-07T23:14:21.627Z,1.70
2022-12-07T23:16:49.553Z,1.70
2022-12-07T23:19:19.386Z,3.03
2022-12-07T23:21:47.130Z,1.80
2022-12-07T23:24:15.868Z,1.57
2022-12-07T23:26:44.574Z,1.80
2022-12-07T23:29:17.174Z,3.00
2022-12-07T23:31:45.896Z,2.00
2022-12-07T23:34:15.227Z,1.90
2022-12-07T23:36:44.397Z,2.13
2022-12-07T23:39:12.355Z,2.47
2022-12-07T23:41:40.432Z,3.40
2022-12-07T23:44:08.350Z,1.90
2022-12-07T23:46:36.296Z,2.10
2022-12-07T23:49:06.837Z,4.33
2022-12-07T23:51:34.949Z,2.40
2022-12-07T23:54:04.091Z,2.10
2022-12-07T23:56:33.514Z,2.73
2022-12-07T23:59:02.678Z,3.93
